Time;durP1;ratioP1;P1;durP2;ratioP2;P2;SDS_P1;SDS_P2;PMS_P1;PMS_P2;Temp;Humidity;BMP_temperature;BMP_pressure;BME280_temperature;BME280_humidity;BME280_pressure;Samples;Min_cycle;Max_cycle;Signal;HPM_P1;HPM_P2
2022/09/04 00:02:28;;;;;;;2.30;1.70;;;16.50;93.40;;;;;;5034371;28;20451;-73
2022/09/04 00:05:30;;;;;;;2.13;1.20;;;16.50;93.50;;;;;;5034208;28;20215;-73
2022/09/04 00:08:20;;;;;;;1.97;1.20;;;16.50;93.70;;;;;;5034675;28;20402;-73
2022/09/04 00:11:02;;;;;;;1.53;1.40;;;16.40;93.90;;;;;;5034682;28;20427;-72
2022/09/04 00:13:43;;;;;;;2.10;1.50;;;16.30;94.20;;;;;;5034355;28;20927;-73
2022/09/04 00:16:20;;;;;;;1.80;1.40;;;16.30;94.30;;;;;;5034059;28;20454;-73
2022/09/04 00:19:10;;;;;;;1.20;1.10;;;16.30;94.40;;;;;;5034151;28;20477;-72
2022/09/04 00:21:46;;;;;;;1.30;1.20;;;16.30;94.70;;;;;;5033850;28;20434;-73
2022/09/04 00:24:16;;;;;;;1.60;1.50;;;16.20;94.80;;;;;;5033982;28;20466;-73
2022/09/04 00:26:42;;;;;;;2.20;1.90;;;16.20;95.10;;;;;;5034007;28;20417;-72
2022/09/04 00:29:35;;;;;;;2.00;1.80;;;16.10;95.20;;;;;;5034189;28;20408;-72
2022/09/04 00:32:06;;;;;;;1.30;1.20;;;16.10;95.50;;;;;;4997003;28;20200;-73
2022/09/04 00:35:13;;;;;;;2.40;1.20;;;16.00;95.60;;;;;;5033761;28;20820;-73
2022/09/04 00:38:01;;;;;;;1.87;1.30;;;16.00;95.70;;;;;;5033316;28;20429;-73
2022/09/04 00:40:28;;;;;;;1.90;1.30;;;16.00;95.90;;;;;;4983371;28;20480;-73
2022/09/04 00:43:27;;;;;;;1.40;1.30;;;16.00;95.90;;;;;;5033704;28;20968;-73
2022/09/04 00:46:03;;;;;;;3.30;1.37;;;16.00;96.10;;;;;;4987130;28;20465;-73
2022/09/04 00:48:54;;;;;;;3.37;1.43;;;15.90;96.20;;;;;;5033772;28;20479;-73
2022/09/04 00:52:01;;;;;;;3.20;1.17;;;15.90;96.40;;;;;;5066844;23;20494;-68
2022/09/04 00:54:39;;;;;;;2.07;1.30;;;15.80;96.60;;;;;;5067150;28;20929;-68
2022/09/04 00:57:12;;;;;;;1.30;1.20;;;15.80;96.80;;;;;;5073561;28;20809;-68
2022/09/04 00:59:56;;;;;;;2.30;1.70;;;15.80;96.90;;;;;;5073654;28;20396;-68
2022/09/04 01:02:38;;;;;;;1.40;1.30;;;15.80;96.90;;;;;;5089266;28;20420;-68
2022/09/04 01:05:21;;;;;;;1.20;1.00;;;15.70;97.00;;;;;;5092231;28;20414;-68
2022/09/04 01:08:06;;;;;;;1.47;1.00;;;15.70;97.20;;;;;;5093623;28;20484;-68
2022/09/04 01:10:40;;;;;;;1.57;1.47;;;15.70;97.20;;;;;;5093661;28;20415;-68
2022/09/04 01:13:17;;;;;;;1.57;1.27;;;15.70;97.30;;;;;;5093540;28;20495;-69
2022/09/04 01:15:47;;;;;;;1.00;0.80;;;15.70;97.30;;;;;;5093434;28;20464;-68
2022/09/04 01:18:26;;;;;;;2.37;1.83;;;15.70;97.20;;;;;;5093480;28;20389;-68
2022/09/04 01:21:23;;;;;;;1.87;1.20;;;15.80;97.30;;;;;;5093621;28;20416;-68
2022/09/04 01:23:49;;;;;;;1.40;1.30;;;15.80;97.40;;;;;;5093626;28;20415;-68
2022/09/04 01:26:39;;;;;;;1.20;1.10;;;15.70;97.50;;;;;;5093189;28;20453;-67
2022/09/04 01:29:14;;;;;;;1.47;1.37;;;15.70;97.50;;;;;;5093443;28;20169;-67
2022/09/04 01:31:47;;;;;;;5.33;1.20;;;15.70;97.50;;;;;;5093047;28;20433;-68
2022/09/04 01:34:38;;;;;;;1.50;1.03;;;15.70;97.60;;;;;;5092381;28;20397;-67
2022/09/04 01:37:27;;;;;;;1.20;1.10;;;15.70;97.60;;;;;;5092733;28;20866;-67
2022/09/04 01:40:35;;;;;;;1.33;1.23;;;15.60;97.70;;;;;;5092973;28;20847;-68
2022/09/04 01:43:10;;;;;;;4.70;1.20;;;15.60;97.70;;;;;;5092977;28;20489;-68
2022/09/04 01:45:36;;;;;;;1.27;1.10;;;15.60;97.70;;;;;;5092667;28;20928;-68
2022/09/04 01:48:06;;;;;;;1.03;0.90;;;15.60;97.80;;;;;;5092966;28;20422;-68
2022/09/04 01:50:33;;;;;;;2.90;1.50;;;15.60;97.80;;;;;;5092972;28;20411;-68
2022/09/04 01:53:08;;;;;;;3.17;1.43;;;15.50;97.90;;;;;;5092858;28;20503;-68
2022/09/04 01:55:43;;;;;;;1.17;0.93;;;15.50;97.90;;;;;;5092519;28;21028;-68
2022/09/04 01:58:20;;;;;;;1.47;1.10;;;15.50;98.00;;;;;;5093507;28;20883;-68
2022/09/04 02:01:05;;;;;;;1.40;1.23;;;15.50;98.10;;;;;;5093016;28;20407;-68
2022/09/04 02:03:59;;;;;;;1.67;1.40;;;15.40;98.40;;;;;;5093025;28;20412;-68
2022/09/04 02:06:42;;;;;;;2.40;1.57;;;15.40;98.10;;;;;;5093021;28;20469;-68
2022/09/04 02:09:30;;;;;;;1.30;1.20;;;15.40;98.10;;;;;;5092938;28;20400;-68
2022/09/04 02:12:36;;;;;;;1.10;0.90;;;15.40;98.20;;;;;;5092859;28;20776;-68
2022/09/04 02:15:11;;;;;;;1.60;1.50;;;15.30;98.30;;;;;;5092530;28;20427;-68
2022/09/04 02:18:05;;;;;;;1.50;1.17;;;15.30;98.50;;;;;;5092859;28;20400;-68
2022/09/04 02:20:31;;;;;;;3.03;1.00;;;15.20;98.60;;;;;;5092488;28;20499;-68
2022/09/04 02:23:28;;;;;;;2.13;1.50;;;15.20;98.50;;;;;;5092583;28;20419;-68
2022/09/04 02:26:05;;;;;;;1.10;1.00;;;15.20;98.60;;;;;;5092481;28;20161;-69
2022/09/04 02:28:46;;;;;;;1.93;1.77;;;15.20;98.70;;;;;;5092479;28;20409;-69
2022/09/04 02:31:28;;;;;;;1.57;1.10;;;15.10;98.90;;;;;;5092395;28;20416;-68
2022/09/04 02:34:20;;;;;;;1.53;1.10;;;15.10;98.90;;;;;;5092460;28;20780;-68
2022/09/04 02:37:02;;;;;;;4.90;1.27;;;15.10;98.90;;;;;;5092247;28;20447;-68
2022/09/04 02:40:05;;;;;;;1.63;1.47;;;15.00;99.00;;;;;;5092436;28;20395;-69
2022/09/04 02:42:41;;;;;;;1.70;1.20;;;15.00;99.10;;;;;;5092207;28;20503;-69
2022/09/04 02:45:06;;;;;;;2.13;1.13;;;15.00;99.10;;;;;;5091572;28;20953;-67
2022/09/04 02:47:44;;;;;;;1.50;1.30;;;15.00;99.10;;;;;;5091688;28;20404;-68
2022/09/04 02:50:53;;;;;;;1.67;1.23;;;15.00;99.20;;;;;;5092170;28;20174;-67
2022/09/04 02:53:39;;;;;;;1.30;1.20;;;15.00;99.00;;;;;;5092252;28;20434;-68
2022/09/04 02:56:33;;;;;;;1.30;1.20;;;15.00;99.30;;;;;;5091601;28;20442;-67
2022/09/04 02:59:23;;;;;;;1.10;1.00;;;14.90;99.40;;;;;;5091907;28;20483;-67
2022/09/04 03:02:07;;;;;;;1.20;1.10;;;14.90;99.40;;;;;;5091787;28;20553;-67
2022/09/04 03:05:08;;;;;;;1.30;1.20;;;14.90;99.40;;;;;;5091722;28;21032;-68
2022/09/04 03:08:02;;;;;;;2.80;1.40;;;14.90;99.40;;;;;;5048879;28;20470;-68
2022/09/04 03:10:38;;;;;;;1.80;1.10;;;14.90;99.50;;;;;;5083914;28;20506;-69
2022/09/04 03:13:22;;;;;;;1.53;1.20;;;14.80;99.60;;;;;;5091821;28;20395;-68
2022/09/04 03:16:20;;;;;;;2.40;1.17;;;14.80;99.70;;;;;;5091695;28;20456;-67
2022/09/04 03:18:54;;;;;;;2.40;1.80;;;14.80;99.80;;;;;;5091744;28;20483;-67
2022/09/04 03:21:28;;;;;;;1.50;1.13;;;14.70;99.90;;;;;;5091593;28;21069;-68
2022/09/04 03:24:01;;;;;;;1.10;1.00;;;14.70;99.90;;;;;;5091626;28;20486;-68
2022/09/04 03:26:34;;;;;;;1.47;1.00;;;14.70;99.90;;;;;;5091412;28;20396;-67
2022/09/04 03:29:23;;;;;;;2.40;1.30;;;14.60;99.90;;;;;;5091739;28;20396;-67
2022/09/04 03:32:14;;;;;;;2.13;1.10;;;14.60;99.90;;;;;;5091314;28;20419;-67
2022/09/04 03:35:18;;;;;;;2.30;1.30;;;14.50;99.90;;;;;;5091434;28;20408;-67
2022/09/04 03:37:54;;;;;;;1.30;1.20;;;14.50;99.90;;;;;;5091375;28;20632;-68
2022/09/04 03:40:40;;;;;;;1.30;1.20;;;14.50;99.90;;;;;;5091574;28;20399;-67
2022/09/04 03:43:17;;;;;;;2.10;1.10;;;14.50;99.90;;;;;;5091524;28;20415;-68
2022/09/04 03:46:03;;;;;;;1.30;1.20;;;14.40;99.90;;;;;;5091242;28;20826;-68
2022/09/04 03:48:34;;;;;;;2.03;1.23;;;14.40;99.90;;;;;;5091307;28;20392;-67
2022/09/04 03:51:31;;;;;;;1.37;1.27;;;14.30;99.90;;;;;;5091241;28;20427;-68
2022/09/04 03:54:05;;;;;;;2.50;1.23;;;14.30;99.90;;;;;;5091292;28;20402;-68
2022/09/04 03:56:43;;;;;;;2.57;1.10;;;14.30;99.90;;;;;;5091142;28;20534;-68
2022/09/04 03:59:29;;;;;;;1.40;1.30;;;14.30;99.90;;;;;;5095495;28;20399;-68
2022/09/04 04:02:05;;;;;;;1.10;1.00;;;14.20;99.90;;;;;;5094854;28;20420;-69
2022/09/04 04:04:42;;;;;;;1.20;0.90;;;14.20;99.90;;;;;;5094961;28;20421;-68
2022/09/04 04:07:11;;;;;;;1.10;1.00;;;14.20;99.90;;;;;;5094804;28;20794;-68
2022/09/04 04:09:47;;;;;;;1.50;1.40;;;14.10;99.90;;;;;;5094784;28;20498;-68
2022/09/04 04:12:39;;;;;;;1.20;1.10;;;14.10;99.90;;;;;;5094711;28;20430;-69
2022/09/04 04:15:29;;;;;;;1.00;0.90;;;14.10;99.90;;;;;;5094479;28;20933;-68
2022/09/04 04:18:25;;;;;;;1.37;1.20;;;14.00;99.90;;;;;;5094716;28;20811;-68
2022/09/04 04:21:28;;;;;;;1.30;1.20;;;14.00;99.90;;;;;;5094593;28;20470;-67
2022/09/04 04:24:03;;;;;;;1.30;1.10;;;13.90;99.90;;;;;;5012213;28;20428;-68
2022/09/04 04:27:04;;;;;;;1.00;0.90;;;13.90;99.90;;;;;;5084240;28;20418;-68
2022/09/04 04:29:57;;;;;;;1.40;0.93;;;13.90;99.90;;;;;;5021904;28;20419;-68
2022/09/04 04:32:31;;;;;;;1.20;1.10;;;13.90;99.90;;;;;;5094862;28;20507;-69
2022/09/04 04:35:11;;;;;;;1.10;1.00;;;13.90;99.90;;;;;;5094827;28;20399;-68
2022/09/04 04:38:00;;;;;;;1.13;1.00;;;13.80;99.90;;;;;;5094914;28;20396;-69
2022/09/04 04:40:45;;;;;;;1.70;1.10;;;13.80;99.90;;;;;;5094580;28;20460;-68
2022/09/04 04:43:28;;;;;;;1.17;1.07;;;13.70;99.90;;;;;;5094372;28;20478;-69
2022/09/04 04:46:19;;;;;;;1.40;1.20;;;13.80;99.90;;;;;;5093974;28;20494;-69
2022/09/04 04:49:03;;;;;;;1.00;0.80;;;13.70;99.90;;;;;;5091203;28;20420;-69
2022/09/04 04:51:46;;;;;;;1.57;1.20;;;13.80;99.90;;;;;;5090350;28;20443;-69
2022/09/04 04:54:33;;;;;;;1.40;1.00;;;13.80;99.90;;;;;;5094077;28;20453;-69
2022/09/04 04:57:30;;;;;;;4.83;1.10;;;13.70;99.90;;;;;;5093472;28;20443;-67
2022/09/04 05:00:18;;;;;;;1.20;0.90;;;13.70;99.90;;;;;;5074106;28;20388;-68
2022/09/04 05:03:14;;;;;;;1.20;1.10;;;13.70;99.90;;;;;;5073698;28;20812;-68
2022/09/04 05:05:57;;;;;;;1.60;1.50;;;13.80;99.90;;;;;;5039708;28;20405;-69
2022/09/04 05:08:35;;;;;;;1.60;1.50;;;13.80;99.90;;;;;;5089769;28;20408;-68
2022/09/04 05:11:23;;;;;;;1.20;0.93;;;13.80;99.90;;;;;;5087134;28;20514;-69
2022/09/04 05:14:15;;;;;;;2.40;1.00;;;13.80;99.90;;;;;;5093637;28;20795;-67
2022/09/04 05:17:05;;;;;;;2.50;1.30;;;13.80;99.90;;;;;;5093474;28;20526;-68
2022/09/04 05:20:05;;;;;;;1.20;1.10;;;13.90;99.90;;;;;;5093551;28;20893;-69
2022/09/04 05:22:56;;;;;;;1.17;1.07;;;13.90;99.90;;;;;;5095477;28;20510;-69
2022/09/04 05:25:41;;;;;;;1.47;1.00;;;13.90;99.90;;;;;;5041761;28;20562;-68
2022/09/04 05:28:19;;;;;;;1.60;1.10;;;14.00;99.90;;;;;;5085455;28;20399;-68
2022/09/04 05:30:57;;;;;;;1.23;1.13;;;14.00;99.90;;;;;;5059514;28;20426;-68
2022/09/04 05:33:39;;;;;;;2.77;1.20;;;14.10;99.90;;;;;;5075440;28;20768;-67
2022/09/04 05:36:15;;;;;;;1.67;1.23;;;14.10;99.90;;;;;;5093079;28;20587;-68
2022/09/04 05:39:05;;;;;;;1.10;1.00;;;14.20;99.90;;;;;;5092622;28;20400;-68
2022/09/04 05:42:02;;;;;;;1.80;1.50;;;14.30;99.90;;;;;;5092932;28;20424;-68
2022/09/04 05:44:33;;;;;;;2.40;1.20;;;14.50;99.90;;;;;;5073608;28;20499;-68
2022/09/04 05:47:16;;;;;;;2.40;1.10;;;15.00;99.90;;;;;;5079533;28;20416;-68
2022/09/04 05:49:48;;;;;;;2.00;1.27;;;15.60;99.90;;;;;;5073023;28;20421;-69
2022/09/04 05:52:36;;;;;;;1.10;0.80;;;16.10;99.90;;;;;;5072547;28;20444;-68
2022/09/04 05:55:20;;;;;;;1.43;1.10;;;16.50;99.40;;;;;;5072444;28;20406;-71
2022/09/04 05:58:13;;;;;;;2.00;1.30;;;16.90;98.30;;;;;;5064000;28;20408;-67
2022/09/04 06:00:49;;;;;;;1.70;1.17;;;17.20;98.10;;;;;;5091332;28;20445;-71
2022/09/04 06:03:41;;;;;;;3.87;1.00;;;17.60;96.80;;;;;;5093161;28;20396;-67
2022/09/04 06:06:43;;;;;;;1.93;1.30;;;18.00;96.00;;;;;;5092520;28;20415;-68
2022/09/04 06:09:45;;;;;;;1.60;1.30;;;18.30;95.30;;;;;;5092289;28;20416;-67
2022/09/04 06:12:46;;;;;;;1.37;1.27;;;18.20;95.70;;;;;;5092522;28;20416;-67
2022/09/04 06:15:27;;;;;;;2.63;1.30;;;18.60;94.90;;;;;;5092333;28;20830;-67
2022/09/04 06:17:52;;;;;;;2.40;1.30;;;18.60;94.90;;;;;;5092964;28;20455;-67
2022/09/04 06:20:36;;;;;;;1.57;1.40;;;18.70;94.50;;;;;;5088976;28;20807;-68
2022/09/04 06:23:12;;;;;;;1.20;1.10;;;18.60;94.20;;;;;;5072304;28;20533;-68
2022/09/04 06:26:02;;;;;;;4.00;1.30;;;18.60;94.20;;;;;;5072604;28;20439;-68
2022/09/04 06:29:01;;;;;;;1.20;1.10;;;18.60;94.20;;;;;;5083948;28;20497;-67
2022/09/04 06:31:53;;;;;;;2.70;1.50;;;18.10;94.90;;;;;;5092451;28;20420;-67
2022/09/04 06:34:54;;;;;;;1.37;1.20;;;17.90;95.60;;;;;;5082270;28;20496;-67
2022/09/04 06:37:50;;;;;;;2.07;1.20;;;17.60;95.90;;;;;;5039668;28;20430;-67
2022/09/04 06:40:39;;;;;;;1.50;1.40;;;17.50;96.50;;;;;;5072043;28;20467;-66
2022/09/04 06:43:44;;;;;;;2.30;1.43;;;17.40;96.80;;;;;;5086161;28;20812;-70
2022/09/04 06:46:28;;;;;;;5.50;1.33;;;17.40;97.10;;;;;;5092162;28;20407;-67
2022/09/04 06:49:17;;;;;;;1.70;1.30;;;18.30;96.70;;;;;;5092130;28;20408;-68
2022/09/04 06:51:58;;;;;;;1.47;1.23;;;18.80;95.20;;;;;;5076246;28;20454;-67
2022/09/04 06:54:40;;;;;;;1.90;1.33;;;19.40;95.00;;;;;;5072064;28;20388;-68
2022/09/04 06:57:24;;;;;;;2.17;1.30;;;19.80;93.80;;;;;;5071628;28;20494;-67
2022/09/04 07:00:04;;;;;;;2.10;1.40;;;19.80;93.80;;;;;;5071980;28;20394;-67
2022/09/04 07:02:43;;;;;;;2.13;1.50;;;19.90;93.40;;;;;;5082057;28;20801;-67
2022/09/04 07:05:14;;;;;;;2.57;1.80;;;20.10;93.40;;;;;;5073314;28;20403;-67
2022/09/04 07:08:21;;;;;;;1.87;1.70;;;20.60;93.10;;;;;;5071963;28;20468;-67
2022/09/04 07:11:08;;;;;;;1.73;1.63;;;21.00;92.10;;;;;;4990058;28;20419;-67
2022/09/04 07:13:43;;;;;;;2.23;1.57;;;21.10;91.70;;;;;;4990072;28;20413;-68
2022/09/04 07:16:12;;;;;;;4.40;1.50;;;21.10;91.60;;;;;;5044391;28;20460;-67
2022/09/04 07:19:23;;;;;;;1.80;1.70;;;21.80;91.50;;;;;;5071498;28;20404;-66
2022/09/04 07:22:36;;;;;;;3.23;2.23;;;22.50;90.00;;;;;;5071915;28;20418;-67
2022/09/04 07:25:33;;;;;;;2.20;1.70;;;22.70;90.10;;;;;;5071339;28;21023;-67
2022/09/04 07:31:02;;;;;;;5.80;2.07;;;22.50;89.40;;;;;;5029202;28;20454;-72
2022/09/04 07:33:51;;;;;;;2.03;1.83;;;22.40;89.60;;;;;;4997937;28;20419;-73
2022/09/04 07:36:24;;;;;;;4.47;1.87;;;23.10;88.80;;;;;;5015723;28;20458;-72
2022/09/04 07:38:57;;;;;;;3.67;1.83;;;23.60;87.10;;;;;;5015658;28;20422;-71
2022/09/04 07:41:39;;;;;;;2.30;2.10;;;23.50;86.50;;;;;;5015921;28;20394;-72
2022/09/04 07:44:18;;;;;;;3.20;1.90;;;23.50;86.00;;;;;;5016366;28;20406;-72
2022/09/04 07:47:11;;;;;;;2.33;1.53;;;24.00;86.60;;;;;;5015698;28;20409;-72
2022/09/04 07:49:56;;;;;;;3.20;1.83;;;23.40;87.90;;;;;;5015610;28;20944;-72
2022/09/04 07:52:56;;;;;;;3.70;1.80;;;23.90;85.70;;;;;;4987807;28;20433;-71
2022/09/04 07:55:39;;;;;;;2.67;2.10;;;24.00;84.50;;;;;;5015550;28;20450;-73
2022/09/04 07:58:31;;;;;;;2.17;2.00;;;23.50;86.00;;;;;;5017777;28;20430;-72
2022/09/04 08:01:32;;;;;;;2.73;1.70;;;23.20;87.60;;;;;;5019708;28;20444;-72
2022/09/04 08:04:21;;;;;;;3.00;2.40;;;23.20;87.30;;;;;;5011201;28;20476;-73
2022/09/04 08:06:57;;;;;;;4.60;1.80;;;23.40;87.40;;;;;;5015083;28;20724;-73
2022/09/04 08:09:26;;;;;;;2.00;1.57;;;23.60;87.20;;;;;;5015089;28;20442;-73
2022/09/04 08:12:03;;;;;;;3.07;2.77;;;23.20;88.80;;;;;;5015255;28;20417;-73
2022/09/04 08:14:41;;;;;;;2.70;1.97;;;23.00;88.90;;;;;;5015314;28;20442;-73
2022/09/04 08:17:24;;;;;;;2.10;1.90;;;22.90;89.50;;;;;;5014775;28;20492;-73
2022/09/04 08:20:15;;;;;;;3.00;2.47;;;23.50;88.50;;;;;;5015039;28;20430;-73
2022/09/04 08:23:11;;;;;;;1.80;1.70;;;23.80;88.30;;;;;;5014994;28;20815;-73
2022/09/04 08:25:58;;;;;;;1.90;1.70;;;24.00;87.40;;;;;;4997044;28;20414;-72
2022/09/04 08:28:47;;;;;;;3.00;1.90;;;24.80;86.20;;;;;;5014755;28;20426;-72
2022/09/04 08:31:21;;;;;;;3.87;2.33;;;24.20;86.00;;;;;;5014859;28;20439;-73
2022/09/04 08:34:24;;;;;;;2.57;2.37;;;24.20;86.50;;;;;;5015082;28;20413;-73
2022/09/04 08:37:08;;;;;;;2.80;2.43;;;23.70;87.50;;;;;;5014602;28;20453;-73
2022/09/04 08:39:49;;;;;;;3.50;3.00;;;23.90;87.30;;;;;;5014592;28;20423;-72
2022/09/04 08:42:23;;;;;;;1.70;1.60;;;23.40;88.20;;;;;;5014645;28;20753;-73
2022/09/04 08:45:21;;;;;;;2.50;2.10;;;23.60;88.90;;;;;;4996710;28;20422;-73
2022/09/04 08:48:08;;;;;;;2.53;2.10;;;24.20;87.70;;;;;;5014909;28;20411;-73
2022/09/04 08:50:58;;;;;;;2.27;1.97;;;24.60;86.20;;;;;;5014531;28;20734;-73
2022/09/04 08:53:36;;;;;;;2.13;1.93;;;24.10;87.00;;;;;;5014589;28;20421;-73
2022/09/04 08:56:25;;;;;;;2.23;2.03;;;23.70;87.80;;;;;;5014166;28;20547;-72
2022/09/04 08:59:16;;;;;;;1.60;1.40;;;23.40;88.20;;;;;;5014392;28;20408;-72
2022/09/04 09:01:54;;;;;;;2.37;1.60;;;23.60;88.70;;;;;;5014380;28;20769;-71
2022/09/04 09:04:31;;;;;;;1.97;1.80;;;23.90;87.80;;;;;;5014916;28;20459;-72
2022/09/04 09:07:19;;;;;;;2.27;1.90;;;23.70;88.90;;;;;;5019570;28;20463;-72
2022/09/04 09:09:54;;;;;;;5.90;2.00;;;23.90;88.20;;;;;;5019389;28;20423;-73
2022/09/04 09:12:33;;;;;;;3.03;2.13;;;23.50;87.80;;;;;;5014388;28;20419;-73
2022/09/04 09:15:20;;;;;;;4.13;2.07;;;23.90;88.90;;;;;;5014020;28;20464;-72
2022/09/04 09:18:08;;;;;;;3.73;1.97;;;23.80;87.70;;;;;;5014171;28;20415;-72
2022/09/04 09:20:59;;;;;;;2.80;1.70;;;23.60;87.50;;;;;;5014076;28;20817;-73
2022/09/04 09:23:49;;;;;;;2.07;1.80;;;23.70;88.60;;;;;;5014201;28;20465;-73
2022/09/04 09:26:29;;;;;;;2.50;1.80;;;23.70;88.10;;;;;;5013775;28;20421;-72
2022/09/04 09:29:29;;;;;;;1.80;1.50;;;23.70;87.60;;;;;;5013803;28;20456;-72
2022/09/04 09:32:06;;;;;;;1.70;1.60;;;23.80;88.20;;;;;;5013862;28;20411;-73
2022/09/04 09:34:47;;;;;;;2.30;1.53;;;23.70;87.00;;;;;;5013806;28;20414;-73
2022/09/04 09:37:37;;;;;;;2.03;1.93;;;23.50;87.20;;;;;;5013703;28;20450;-72
2022/09/04 09:40:21;;;;;;;4.57;1.60;;;23.40;87.80;;;;;;5013661;28;20491;-73
2022/09/04 09:43:25;;;;;;;1.87;1.77;;;23.50;86.10;;;;;;5013623;28;20432;-73
2022/09/04 09:46:35;;;;;;;2.73;1.67;;;23.10;88.00;;;;;;5013610;28;20418;-73
2022/09/04 09:49:47;;;;;;;2.60;1.90;;;22.90;90.00;;;;;;5013497;28;21028;-73
2022/09/04 09:52:27;;;;;;;1.90;1.70;;;22.80;89.50;;;;;;5032152;28;20527;-73
2022/09/04 09:55:25;;;;;;;1.77;1.50;;;22.80;90.00;;;;;;5032415;28;20418;-77
2022/09/04 09:57:53;;;;;;;2.40;1.70;;;22.50;90.10;;;;;;5033377;28;20821;-73
2022/09/04 10:00:24;;;;;;;1.93;1.50;;;22.30;90.70;;;;;;5028986;28;20476;-73
2022/09/04 10:03:23;;;;;;;2.63;2.20;;;22.40;90.20;;;;;;5033257;28;20780;-73
2022/09/04 10:06:14;;;;;;;2.57;2.37;;;22.30;90.80;;;;;;5033138;28;20905;-73
2022/09/04 10:09:03;;;;;;;2.20;1.90;;;22.20;90.70;;;;;;5031770;28;20435;-73
2022/09/04 10:11:50;;;;;;;3.47;1.80;;;22.00;90.80;;;;;;5032590;28;20414;-72
2022/09/04 10:14:33;;;;;;;2.10;1.90;;;22.20;90.80;;;;;;5032640;28;20414;-73
2022/09/04 10:17:14;;;;;;;3.40;1.70;;;22.00;90.60;;;;;;5032620;28;20447;-73
2022/09/04 10:20:19;;;;;;;1.80;1.70;;;22.20;90.70;;;;;;5032944;28;20776;-72
2022/09/04 10:22:50;;;;;;;2.40;2.20;;;21.90;90.70;;;;;;5032524;28;20408;-73
2022/09/04 10:25:22;;;;;;;2.50;1.53;;;22.00;90.50;;;;;;5032156;28;20514;-72
2022/09/04 10:28:25;;;;;;;2.53;2.10;;;21.90;91.00;;;;;;5032613;28;20442;-72
2022/09/04 10:31:32;;;;;;;2.77;2.10;;;22.00;90.70;;;;;;5032560;28;20430;-73
2022/09/04 10:34:26;;;;;;;2.97;2.17;;;22.10;90.50;;;;;;5032674;28;20496;-72
2022/09/04 10:37:14;;;;;;;1.97;1.70;;;21.90;90.90;;;;;;5032400;28;20521;-73
2022/09/04 10:43:19;;;;;;;1.90;1.80;;;22.00;90.80;;;;;;5032654;28;20496;-72
2022/09/04 10:45:52;;;;;;;1.80;1.70;;;22.10;89.50;;;;;;5032476;28;20497;-72
2022/09/04 10:48:45;;;;;;;2.10;1.90;;;22.20;89.80;;;;;;5032349;28;20529;-73
2022/09/04 10:51:36;;;;;;;1.93;1.83;;;22.20;88.90;;;;;;5032714;28;20817;-72
2022/09/04 10:54:07;;;;;;;1.90;1.77;;;22.30;89.50;;;;;;5039614;28;20426;-73
2022/09/04 10:56:46;;;;;;;1.93;1.70;;;22.50;89.70;;;;;;5035085;28;20459;-73
2022/09/04 10:59:32;;;;;;;2.37;2.10;;;22.60;89.70;;;;;;5032339;28;20437;-73
2022/09/04 11:02:33;;;;;;;2.20;1.73;;;22.50;89.00;;;;;;5032299;28;20410;-74
2022/09/04 11:05:30;;;;;;;2.60;2.40;;;22.30;89.50;;;;;;5002549;28;20422;-74
2022/09/04 11:07:58;;;;;;;2.40;1.77;;;22.50;89.50;;;;;;5034787;28;20932;-72
2022/09/04 11:11:18;;;;;;;2.47;1.60;;;22.60;89.80;;;;;;5036632;28;20414;-73
2022/09/04 11:14:02;;;;;;;2.20;1.80;;;22.90;88.70;;;;;;4975355;28;20415;-73
2022/09/04 11:16:34;;;;;;;2.37;1.90;;;22.80;88.80;;;;;;5033650;28;20470;-72
2022/09/04 11:19:10;;;;;;;2.13;1.90;;;22.70;88.90;;;;;;5037862;28;20418;-73
2022/09/04 11:21:50;;;;;;;2.17;1.97;;;22.70;88.60;;;;;;5036201;28;20409;-72
2022/09/04 11:24:52;;;;;;;1.87;1.77;;;22.90;88.50;;;;;;5018361;28;20469;-72
2022/09/04 11:27:37;;;;;;;2.73;1.80;;;22.80;88.90;;;;;;5036124;28;20418;-72
2022/09/04 11:30:25;;;;;;;3.07;2.33;;;22.80;89.00;;;;;;5035615;28;20949;-72
2022/09/04 11:33:24;;;;;;;3.30;2.00;;;22.90;89.10;;;;;;5036014;28;20463;-72
2022/09/04 11:36:14;;;;;;;2.73;1.87;;;22.80;89.00;;;;;;5035925;28;20450;-73
2022/09/04 11:38:58;;;;;;;2.00;1.80;;;22.70;89.20;;;;;;5036135;28;20436;-72
2022/09/04 11:41:47;;;;;;;2.20;1.87;;;22.70;89.40;;;;;;5035874;28;20736;-72
2022/09/04 11:44:37;;;;;;;1.73;1.63;;;22.90;89.60;;;;;;5035467;28;20405;-73
2022/09/04 11:47:35;;;;;;;3.60;2.10;;;22.90;89.30;;;;;;5035569;28;20499;-73
2022/09/04 11:50:22;;;;;;;3.73;2.40;;;23.10;89.50;;;;;;5022338;28;20470;-72
2022/09/04 11:53:22;;;;;;;1.60;1.50;;;23.20;88.50;;;;;;5035261;28;20412;-73
2022/09/04 11:55:56;;;;;;;2.77;1.90;;;23.00;88.00;;;;;;5002341;28;20454;-72
2022/09/04 11:58:49;;;;;;;2.00;1.90;;;23.10;88.20;;;;;;5035236;28;20500;-72
2022/09/04 12:01:33;;;;;;;3.60;1.93;;;23.30;87.90;;;;;;5035005;28;20400;-73
2022/09/04 12:04:29;;;;;;;2.80;1.70;;;23.10;87.30;;;;;;5034924;28;20751;-72
2022/09/04 12:07:12;;;;;;;2.50;2.13;;;23.10;87.80;;;;;;5034944;28;20396;-72
2022/09/04 12:10:01;;;;;;;2.00;1.90;;;23.30;87.50;;;;;;5035236;28;20443;-73
2022/09/04 12:13:13;;;;;;;2.70;2.10;;;23.40;87.80;;;;;;5034840;28;20401;-72
2022/09/04 12:16:19;;;;;;;3.17;2.20;;;23.60;86.90;;;;;;5034477;28;20957;-72
2022/09/04 12:19:04;;;;;;;2.70;2.27;;;23.40;86.20;;;;;;5033999;28;20428;-72
2022/09/04 12:21:50;;;;;;;2.30;1.63;;;23.30;86.80;;;;;;5034697;28;20398;-71
2022/09/04 12:24:27;;;;;;;3.00;1.97;;;23.20;87.80;;;;;;5034715;28;20411;-72
2022/09/04 12:27:25;;;;;;;2.47;2.27;;;23.40;87.90;;;;;;5034539;28;20776;-72
2022/09/04 12:30:06;;;;;;;3.47;3.10;;;23.20;87.80;;;;;;5034663;28;20447;-73
2022/09/04 12:32:53;;;;;;;2.37;2.00;;;23.40;87.50;;;;;;5035183;28;20772;-74
2022/09/04 12:35:45;;;;;;;2.87;1.90;;;23.40;87.30;;;;;;5036188;28;20410;-74
2022/09/04 12:38:35;;;;;;;2.30;1.83;;;23.30;87.10;;;;;;5037120;28;20408;-74
2022/09/04 12:41:11;;;;;;;1.67;1.53;;;23.40;87.60;;;;;;5037428;28;20404;-74
2022/09/04 12:44:10;;;;;;;1.77;1.67;;;23.50;87.20;;;;;;5034310;28;20397;-72
2022/09/04 12:46:57;;;;;;;1.57;1.47;;;23.40;87.00;;;;;;5033889;28;20404;-74
2022/09/04 12:49:24;;;;;;;2.43;1.77;;;23.60;86.80;;;;;;5034005;28;20461;-72
2022/09/04 12:52:25;;;;;;;3.80;2.23;;;23.80;86.30;;;;;;5033600;28;20930;-72
2022/09/04 12:55:14;;;;;;;2.23;1.90;;;23.70;85.10;;;;;;5034188;28;20401;-72
2022/09/04 12:58:01;;;;;;;2.30;2.10;;;24.00;85.10;;;;;;5034033;28;20409;-72
2022/09/04 13:00:40;;;;;;;2.47;2.00;;;24.00;84.60;;;;;;5034005;28;20399;-72
2022/09/04 13:03:32;;;;;;;2.10;1.87;;;23.80;84.20;;;;;;5033834;28;20402;-74
2022/09/04 13:06:27;;;;;;;1.90;1.80;;;23.70;83.40;;;;;;5013415;28;20422;-72
2022/09/04 13:09:03;;;;;;;2.47;2.27;;;23.90;84.00;;;;;;5034748;28;20918;-73
2022/09/04 13:11:40;;;;;;;2.13;1.93;;;23.90;82.10;;;;;;5036172;28;20399;-72
2022/09/04 13:14:36;;;;;;;2.70;1.77;;;23.50;82.40;;;;;;5036229;28;20393;-73
2022/09/04 13:17:09;;;;;;;1.90;1.60;;;23.60;81.30;;;;;;5016202;28;20454;-73
2022/09/04 13:19:37;;;;;;;1.87;1.77;;;23.70;81.40;;;;;;5033800;28;20429;-73
2022/09/04 13:22:28;;;;;;;2.07;1.87;;;23.70;80.50;;;;;;5033583;28;20912;-72
2022/09/04 13:25:26;;;;;;;3.30;2.40;;;23.70;80.60;;;;;;5015743;28;20501;-72
2022/09/04 13:28:14;;;;;;;3.30;1.97;;;23.80;80.10;;;;;;5033849;28;20402;-73
2022/09/04 13:31:07;;;;;;;2.27;1.90;;;23.80;79.40;;;;;;5029640;23;20489;-67
2022/09/04 13:33:52;;;;;;;3.33;2.40;;;24.00;79.20;;;;;;4993617;28;20601;-67
2022/09/04 13:36:26;;;;;;;2.97;1.90;;;23.90;78.70;;;;;;4994287;28;20447;-66
2022/09/04 13:39:24;;;;;;;2.17;1.90;;;24.10;78.50;;;;;;4993704;28;20912;-66
2022/09/04 13:42:33;;;;;;;2.53;1.50;;;24.20;77.10;;;;;;4994268;28;20400;-67
2022/09/04 13:45:05;;;;;;;3.00;1.50;;;24.20;76.90;;;;;;4960943;28;20419;-66
2022/09/04 13:47:40;;;;;;;4.70;2.07;;;23.90;75.70;;;;;;4993784;28;20462;-66
2022/09/04 13:50:15;;;;;;;1.93;1.47;;;23.90;77.20;;;;;;4976061;28;20439;-66
2022/09/04 13:52:56;;;;;;;1.27;1.17;;;24.00;76.40;;;;;;4993623;28;20403;-67
2022/09/04 13:55:26;;;;;;;1.40;1.30;;;24.10;74.90;;;;;;4993541;28;20411;-66
2022/09/04 13:58:09;;;;;;;1.73;1.63;;;24.30;74.70;;;;;;4993563;28;20925;-67
2022/09/04 14:00:43;;;;;;;2.07;1.73;;;24.40;73.40;;;;;;4993383;28;20436;-66
2022/09/04 14:03:30;;;;;;;3.20;1.60;;;24.10;74.40;;;;;;4993573;28;20404;-66
2022/09/04 14:05:58;;;;;;;1.93;1.70;;;24.10;74.60;;;;;;4993122;28;20472;-66
2022/09/04 14:08:30;;;;;;;3.17;2.20;;;24.20;74.40;;;;;;4993172;28;20409;-67
2022/09/04 14:11:30;;;;;;;1.90;1.77;;;24.00;74.30;;;;;;4992982;28;20843;-66
2022/09/04 14:14:29;;;;;;;2.00;1.80;;;24.20;73.80;;;;;;4992949;28;20470;-66
2022/09/04 14:16:57;;;;;;;2.20;1.70;;;24.30;73.40;;;;;;4993004;28;20463;-67
2022/09/04 14:19:53;;;;;;;2.63;1.77;;;24.30;73.30;;;;;;4992692;28;20461;-67
2022/09/04 14:22:28;;;;;;;1.90;1.80;;;24.20;73.20;;;;;;4993026;28;20902;-67
2022/09/04 14:25:20;;;;;;;2.40;1.50;;;24.00;73.90;;;;;;4993086;28;20498;-67
2022/09/04 14:28:07;;;;;;;1.20;1.10;;;23.90;74.20;;;;;;4993263;28;20411;-67
2022/09/04 14:30:45;;;;;;;2.23;2.00;;;24.00;73.10;;;;;;4993461;28;20443;-66